createdAt,value
2018-08-22T00:01:09.892Z,54.90
2018-08-22T00:03:37.603Z,55.50
2018-08-22T00:06:05.319Z,55.50
2018-08-22T00:08:38.734Z,55.20
2018-08-22T00:11:06.428Z,55.60
2018-08-22T00:13:34.145Z,55.80
2018-08-22T00:16:01.838Z,57.20
2018-08-22T00:18:29.548Z,58.10
2018-08-22T00:20:57.251Z,58.80
2018-08-22T00:23:24.952Z,59.00
2018-08-22T00:25:52.636Z,58.80
2018-08-22T00:28:20.359Z,58.70
2018-08-22T00:30:48.060Z,59.20
2018-08-22T00:33:15.806Z,59.30
2018-08-22T00:35:43.579Z,59.90
2018-08-22T00:38:11.282Z,61.20
2018-08-22T00:40:39.014Z,61.70
2018-08-22T00:43:06.736Z,62.60
2018-08-22T00:45:34.444Z,63.50
2018-08-22T00:48:02.165Z,63.80
2018-08-22T00:50:29.883Z,63.80
2018-08-22T00:52:57.583Z,64.30
2018-08-22T00:55:25.306Z,64.50
2018-08-22T00:57:53.029Z,64.80
2018-08-22T01:00:20.737Z,65.50
2018-08-22T01:02:48.447Z,66.40
2018-08-22T01:05:16.262Z,66.30
2018-08-22T01:07:43.947Z,67.00
2018-08-22T01:10:11.654Z,67.20
2018-08-22T01:12:39.324Z,67.10
2018-08-22T01:15:07.063Z,67.50
2018-08-22T01:17:34.823Z,68.00
2018-08-22T01:20:02.626Z,66.40
2018-08-22T01:22:30.351Z,66.00
2018-08-22T01:24:58.053Z,64.80
2018-08-22T01:27:25.759Z,64.60
2018-08-22T01:29:54.219Z,65.10
2018-08-22T01:32:22.414Z,65.30
2018-08-22T01:34:50.971Z,63.80
2018-08-22T01:37:18.692Z,64.40
2018-08-22T01:39:47.175Z,65.00
2018-08-22T01:42:14.999Z,65.90
2018-08-22T01:44:43.046Z,66.30
2018-08-22T01:47:10.719Z,66.40
2018-08-22T01:49:38.382Z,67.40
2018-08-22T01:52:06.066Z,68.20
2018-08-22T01:54:34.812Z,69.80
2018-08-22T01:57:02.850Z,69.50
2018-08-22T01:59:30.519Z,70.10
2018-08-22T02:01:58.199Z,68.80
2018-08-22T02:04:25.876Z,68.50
2018-08-22T02:06:53.596Z,67.90
2018-08-22T02:09:21.306Z,66.10
2018-08-22T02:11:49.035Z,65.70
2018-08-22T02:14:16.721Z,68.20
2018-08-22T02:16:44.408Z,66.60
2018-08-22T02:19:12.127Z,66.80
2018-08-22T02:21:39.810Z,67.70
2018-08-22T02:24:07.506Z,69.70
2018-08-22T02:26:35.202Z,69.50
2018-08-22T02:29:02.904Z,68.80
2018-08-22T02:31:30.919Z,67.20
2018-08-22T02:33:58.614Z,66.30
2018-08-22T02:36:26.367Z,67.20
2018-08-22T02:38:54.035Z,67.40
2018-08-22T02:41:21.750Z,66.50
2018-08-22T02:43:49.455Z,66.20
2018-08-22T02:46:17.176Z,65.50
2018-08-22T02:48:50.447Z,65.50
2018-08-22T02:51:18.147Z,64.70
2018-08-22T02:53:45.839Z,64.40
2018-08-22T02:56:13.528Z,63.30
2018-08-22T02:58:41.223Z,64.10
2018-08-22T03:01:08.916Z,64.90
2018-08-22T03:03:36.857Z,64.20
2018-08-22T03:06:04.573Z,65.20
2018-08-22T03:08:32.611Z,65.30
2018-08-22T03:11:00.310Z,65.30
2018-08-22T03:13:28.061Z,65.30
2018-08-22T03:15:55.863Z,66.00
2018-08-22T03:18:23.847Z,65.00
2018-08-22T03:20:51.559Z,65.00
2018-08-22T03:23:19.275Z,63.90
2018-08-22T03:25:47.258Z,64.00
2018-08-22T03:28:14.981Z,64.30
2018-08-22T03:30:42.657Z,64.00
2018-08-22T03:33:10.379Z,65.00
2018-08-22T03:35:38.074Z,65.90
2018-08-22T03:38:05.833Z,65.80
2018-08-22T03:40:33.527Z,66.50
2018-08-22T03:43:01.252Z,66.20
2018-08-22T03:45:28.936Z,65.20
2018-08-22T03:47:56.631Z,65.40
2018-08-22T03:50:24.349Z,65.90
2018-08-22T03:52:52.044Z,66.20
2018-08-22T03:55:19.777Z,67.00
2018-08-22T03:57:47.459Z,67.00
2018-08-22T04:00:15.219Z,67.00
2018-08-22T04:02:42.923Z,67.10
2018-08-22T04:05:10.637Z,66.80
2018-08-22T04:07:38.372Z,67.90
2018-08-22T04:10:06.166Z,68.60
2018-08-22T04:12:33.878Z,68.70
2018-08-22T04:15:01.587Z,68.90
2018-08-22T04:17:36.427Z,69.20
2018-08-22T04:20:04.427Z,68.50
2018-08-22T04:22:32.165Z,68.60
2018-08-22T04:24:59.859Z,69.60
2018-08-22T04:27:27.543Z,69.50
2018-08-22T04:29:55.275Z,70.80
2018-08-22T04:32:22.982Z,71.70
2018-08-22T04:34:50.720Z,71.60
2018-08-22T04:37:18.449Z,72.00
2018-08-22T04:39:46.183Z,72.80
2018-08-22T04:42:13.919Z,72.80
2018-08-22T04:44:41.736Z,73.50
2018-08-22T04:47:09.634Z,73.40
2018-08-22T04:49:37.342Z,73.40
2018-08-22T04:52:05.098Z,73.20
2018-08-22T04:54:32.800Z,72.20
2018-08-22T04:57:00.794Z,71.80
2018-08-22T04:59:28.504Z,71.60
2018-08-22T05:01:56.218Z,71.10
2018-08-22T05:04:23.958Z,71.00
2018-08-22T05:06:51.680Z,70.50
2018-08-22T05:09:19.385Z,70.60
2018-08-22T05:11:47.171Z,70.10
2018-08-22T05:14:14.870Z,69.10
2018-08-22T05:16:42.604Z,69.20
2018-08-22T05:19:10.291Z,68.90
2018-08-22T05:21:38.039Z,68.90
2018-08-22T05:24:05.749Z,68.80
2018-08-22T05:26:33.452Z,69.20
2018-08-22T05:29:01.187Z,69.10
2018-08-22T05:31:28.874Z,68.70
2018-08-22T05:33:56.620Z,69.20
2018-08-22T05:36:24.319Z,69.30
2018-08-22T05:38:52.102Z,69.10
2018-08-22T05:41:19.816Z,68.80
2018-08-22T05:43:47.546Z,68.60
2018-08-22T05:46:15.281Z,68.30
2018-08-22T05:48:42.976Z,68.40
2018-08-22T05:51:10.746Z,68.10
2018-08-22T05:53:38.454Z,68.40
2018-08-22T05:56:06.188Z,67.60
2018-08-22T05:58:33.890Z,67.70
2018-08-22T06:01:01.607Z,68.00
2018-08-22T06:03:29.356Z,67.80
2018-08-22T06:05:57.051Z,67.00
2018-08-22T06:08:24.778Z,67.00
2018-08-22T06:10:52.542Z,66.50
2018-08-22T06:13:20.275Z,67.00
2018-08-22T06:15:48.007Z,67.70
2018-08-22T06:18:15.683Z,67.30
2018-08-22T06:20:43.418Z,67.30
2018-08-22T06:23:11.116Z,66.40
2018-08-22T06:25:38.931Z,66.00
2018-08-22T06:28:06.590Z,65.20
2018-08-22T06:30:34.317Z,65.20
2018-08-22T06:33:02.080Z,64.20
2018-08-22T06:35:29.768Z,64.00
2018-08-22T06:37:57.520Z,63.90
2018-08-22T06:40:25.214Z,63.20
2018-08-22T06:42:52.936Z,62.50
2018-08-22T06:45:20.662Z,62.20
2018-08-22T06:47:48.428Z,62.30
2018-08-22T06:50:16.174Z,62.00
2018-08-22T06:52:43.860Z,61.70
2018-08-22T06:55:11.647Z,60.40
2018-08-22T06:57:39.355Z,59.50
2018-08-22T07:00:07.111Z,59.90
2018-08-22T07:02:34.818Z,59.40
2018-08-22T07:05:02.583Z,59.70
2018-08-22T07:07:30.323Z,59.60
2018-08-22T07:09:58.023Z,58.20
2018-08-22T07:12:25.751Z,59.40
2018-08-22T07:14:53.484Z,59.60
2018-08-22T07:17:21.189Z,58.80
2018-08-22T07:19:48.871Z,58.20
2018-08-22T07:22:16.656Z,58.20
2018-08-22T07:24:44.363Z,57.50
2018-08-22T07:27:12.115Z,56.30
2018-08-22T07:29:39.847Z,55.80
2018-08-22T07:32:07.575Z,55.00
2018-08-22T07:34:35.308Z,56.40
2018-08-22T07:37:03.106Z,55.50
2018-08-22T07:39:30.831Z,55.10
2018-08-22T07:41:58.575Z,55.50
2018-08-22T07:44:26.290Z,55.70
2018-08-22T07:46:53.983Z,55.00
2018-08-22T07:49:21.795Z,54.80
2018-08-22T07:51:49.493Z,54.70
2018-08-22T07:54:17.193Z,54.00
2018-08-22T07:56:44.981Z,53.80
2018-08-22T07:59:15.385Z,52.90
2018-08-22T08:01:43.147Z,53.30
2018-08-22T08:04:12.023Z,54.30
2018-08-22T08:06:40.019Z,54.10
2018-08-22T08:09:11.048Z,53.50
2018-08-22T08:11:38.812Z,52.30
2018-08-22T08:14:06.791Z,51.50
2018-08-22T08:16:34.727Z,51.50
2018-08-22T08:19:02.481Z,51.50
2018-08-22T08:21:30.203Z,49.80
2018-08-22T08:23:57.989Z,49.20
2018-08-22T08:26:25.772Z,47.40
2018-08-22T08:28:53.468Z,46.00
2018-08-22T08:31:21.252Z,45.40
2018-08-22T08:33:48.965Z,44.20
2018-08-22T08:36:16.782Z,40.50
2018-08-22T08:38:44.459Z,37.70
2018-08-22T08:41:12.213Z,35.90
2018-08-22T08:43:39.887Z,37.40
2018-08-22T08:46:07.643Z,35.60
2018-08-22T08:48:35.796Z,33.50
2018-08-22T08:51:03.604Z,33.40
2018-08-22T08:53:31.331Z,30.70
2018-08-22T08:55:59.304Z,29.10
2018-08-22T08:58:27.027Z,27.90
2018-08-22T09:00:54.731Z,27.80
2018-08-22T09:03:22.419Z,28.20
2018-08-22T09:05:50.120Z,28.20
2018-08-22T09:08:17.796Z,27.40
2018-08-22T09:10:45.540Z,26.30
2018-08-22T09:13:13.260Z,24.70
2018-08-22T09:15:41.539Z,23.80
2018-08-22T09:18:09.243Z,22.70
2018-08-22T09:20:37.063Z,22.60
2018-08-22T09:23:05.053Z,22.70
2018-08-22T09:25:32.748Z,23.00
2018-08-22T09:28:00.529Z,22.70
2018-08-22T09:30:28.203Z,22.50
2018-08-22T09:32:55.936Z,21.70
2018-08-22T09:35:23.648Z,20.60
2018-08-22T09:37:51.360Z,17.80
2018-08-22T09:40:19.054Z,20.40
2018-08-22T09:42:46.727Z,21.90
2018-08-22T09:45:14.419Z,20.00
2018-08-22T09:47:42.199Z,20.00
2018-08-22T09:50:09.875Z,18.30
2018-08-22T09:52:37.602Z,19.10
2018-08-22T09:55:06.341Z,19.60
2018-08-22T09:57:34.079Z,19.60
2018-08-22T10:00:01.835Z,18.80
2018-08-22T10:02:29.480Z,17.60
2018-08-22T10:04:58.232Z,16.00
2018-08-22T10:07:25.975Z,13.30
2018-08-22T10:09:53.668Z,13.50
2018-08-22T10:12:21.404Z,12.30
2018-08-22T10:14:49.123Z,12.20
2018-08-22T10:17:16.900Z,11.20
2018-08-22T10:19:44.715Z,12.60
2018-08-22T10:22:12.345Z,13.20
2018-08-22T10:24:40.080Z,14.60
2018-08-22T10:27:07.938Z,13.60
2018-08-22T10:29:35.571Z,12.10
2018-08-22T10:32:03.334Z,12.20
2018-08-22T10:34:31.146Z,12.10
2018-08-22T10:36:58.844Z,12.20
2018-08-22T10:39:26.591Z,12.00
2018-08-22T10:41:54.295Z,11.80
2018-08-22T10:44:22.041Z,11.50
2018-08-22T10:46:49.759Z,10.50
2018-08-22T10:49:17.503Z,10.60
2018-08-22T10:51:45.228Z,11.80
2018-08-22T10:54:12.899Z,12.40
2018-08-22T10:56:40.628Z,12.00
2018-08-22T10:59:08.320Z,12.20
2018-08-22T11:01:36.047Z,11.60
2018-08-22T11:04:03.748Z,10.30
2018-08-22T11:06:31.487Z,11.90
2018-08-22T11:08:59.184Z,12.00
2018-08-22T11:11:26.876Z,11.00
2018-08-22T11:13:54.647Z,11.10
2018-08-22T11:16:22.363Z,9.60
2018-08-22T11:18:50.059Z,11.10
2018-08-22T11:21:29.276Z,12.10
2018-08-22T11:24:08.235Z,10.50
2018-08-22T11:26:47.090Z,10.40
2018-08-22T11:29:26.023Z,11.00
2018-08-22T11:32:05.045Z,10.30
2018-08-22T11:34:43.616Z,10.50
2018-08-22T11:37:12.584Z,10.80
2018-08-22T11:39:41.811Z,11.30
2018-08-22T11:42:09.510Z,12.10
2018-08-22T11:44:37.215Z,13.40
2018-08-22T11:47:04.981Z,13.40
2018-08-22T11:49:32.751Z,13.00
2018-08-22T11:52:00.741Z,13.70
2018-08-22T11:54:29.299Z,13.30
2018-08-22T11:56:57.037Z,15.70
2018-08-22T11:59:24.747Z,14.50
2018-08-22T12:01:52.507Z,13.80
2018-08-22T12:04:20.601Z,13.10
2018-08-22T12:06:48.540Z,12.70
2018-08-22T12:09:16.280Z,11.90
2018-08-22T12:11:44.002Z,12.20
2018-08-22T12:14:11.753Z,12.40
2018-08-22T12:16:39.991Z,12.10
2018-08-22T12:19:08.304Z,12.00
2018-08-22T12:21:36.023Z,13.30
2018-08-22T12:24:04.007Z,14.40
2018-08-22T12:26:31.794Z,15.50
2018-08-22T12:28:59.483Z,16.20
2018-08-22T12:31:27.634Z,16.80
2018-08-22T12:33:55.339Z,16.10
2018-08-22T12:36:23.046Z,16.20
2018-08-22T12:38:50.707Z,17.00
2018-08-22T12:41:18.355Z,17.50
2018-08-22T12:43:46.231Z,18.30
2018-08-22T12:46:13.891Z,17.90
2018-08-22T12:48:41.567Z,17.50
2018-08-22T12:51:09.213Z,17.70
2018-08-22T12:53:36.920Z,18.70
2018-08-22T12:56:04.599Z,20.10
2018-08-22T12:58:32.311Z,19.70
2018-08-22T13:01:00.024Z,19.10
2018-08-22T13:03:27.731Z,18.90
2018-08-22T13:05:55.464Z,19.50
2018-08-22T13:08:23.168Z,20.00
2018-08-22T13:10:50.961Z,20.00
2018-08-22T13:13:18.668Z,19.60
2018-08-22T13:15:46.423Z,20.40
2018-08-22T13:18:14.168Z,21.40
2018-08-22T13:20:41.888Z,21.10
2018-08-22T13:23:09.648Z,19.70
2018-08-22T13:25:37.355Z,20.80
2018-08-22T13:28:05.217Z,21.10
2018-08-22T13:30:32.961Z,20.60
2018-08-22T13:33:00.699Z,19.80
2018-08-22T13:35:28.437Z,19.90
2018-08-22T13:37:56.173Z,21.20
2018-08-22T13:40:23.944Z,22.00
2018-08-22T13:42:51.676Z,21.50
2018-08-22T13:45:19.388Z,21.00
2018-08-22T13:47:47.117Z,21.50
2018-08-22T13:50:14.826Z,20.90
2018-08-22T13:52:42.661Z,21.10
2018-08-22T13:55:10.352Z,20.60
2018-08-22T13:57:38.047Z,20.50
2018-08-22T14:00:06.339Z,19.90
2018-08-22T14:02:34.042Z,20.00
2018-08-22T14:05:01.783Z,20.60
2018-08-22T14:07:29.507Z,20.90
2018-08-22T14:09:57.247Z,22.10
2018-08-22T14:12:24.984Z,22.20
2018-08-22T14:14:52.696Z,22.10
2018-08-22T14:17:20.452Z,22.10
2018-08-22T14:19:48.331Z,22.00
2018-08-22T14:22:16.077Z,22.20
2018-08-22T14:24:43.771Z,21.70
2018-08-22T14:27:11.487Z,21.60
2018-08-22T14:29:39.223Z,21.30
2018-08-22T14:32:07.169Z,21.10
2018-08-22T14:34:35.127Z,21.30
2018-08-22T14:37:02.902Z,21.10
2018-08-22T14:39:30.632Z,21.40
2018-08-22T14:41:58.394Z,21.70
2018-08-22T14:44:26.096Z,21.60
2018-08-22T14:46:53.827Z,22.10
2018-08-22T14:49:21.567Z,22.10
2018-08-22T14:51:49.292Z,21.70
2018-08-22T14:54:17.045Z,21.90
2018-08-22T14:56:44.760Z,22.30
2018-08-22T14:59:12.472Z,22.80
2018-08-22T15:01:40.193Z,23.20
2018-08-22T15:04:07.939Z,23.30
2018-08-22T15:06:35.660Z,23.80
2018-08-22T15:09:21.407Z,23.90
2018-08-22T15:11:49.594Z,23.90
2018-08-22T15:14:17.353Z,24.10
2018-08-22T15:16:45.108Z,24.30
2018-08-22T15:19:12.973Z,25.20
2018-08-22T15:21:40.700Z,25.20
2018-08-22T15:24:08.420Z,24.70
2018-08-22T15:26:36.250Z,24.40
2018-08-22T15:29:04.087Z,24.40
2018-08-22T15:31:31.823Z,24.90
2018-08-22T15:33:59.516Z,25.00
2018-08-22T15:36:28.162Z,24.90
2018-08-22T15:38:55.775Z,25.50
2018-08-22T15:41:23.528Z,26.10
2018-08-22T15:43:51.196Z,26.70
2018-08-22T15:46:18.859Z,27.10
2018-08-22T15:48:46.538Z,26.70
2018-08-22T15:51:14.226Z,26.60
2018-08-22T15:53:41.931Z,27.30
2018-08-22T15:56:09.613Z,27.60
2018-08-22T15:58:37.394Z,27.30
2018-08-22T16:01:05.284Z,27.70
2018-08-22T16:03:32.963Z,27.90
2018-08-22T16:06:00.667Z,27.90
2018-08-22T16:08:28.891Z,28.10
2018-08-22T16:10:56.562Z,28.40
2018-08-22T16:13:27.812Z,28.40
2018-08-22T16:15:56.390Z,28.40
2018-08-22T16:18:24.120Z,28.30
2018-08-22T16:20:56.942Z,28.20
2018-08-22T16:23:25.659Z,28.70
2018-08-22T16:25:54.301Z,28.80
2018-08-22T16:28:22.656Z,28.80
2018-08-22T16:30:57.041Z,29.40
2018-08-22T16:33:19.894Z,29.80
2018-08-22T16:35:47.663Z,30.40
2018-08-22T16:38:15.468Z,30.60
2018-08-22T16:40:46.912Z,30.90
2018-08-22T16:43:25.400Z,31.30
2018-08-22T16:45:54.918Z,31.60
2018-08-22T16:48:22.572Z,32.40
2018-08-22T16:50:51.228Z,32.40
2018-08-22T16:53:18.941Z,32.40
2018-08-22T16:55:47.448Z,32.80
2018-08-22T16:58:15.687Z,32.80
2018-08-22T17:00:44.638Z,33.10
2018-08-22T17:03:12.303Z,33.50
2018-08-22T17:05:40.067Z,34.00
2018-08-22T17:08:07.751Z,33.70
2018-08-22T17:10:49.456Z,34.20
2018-08-22T17:13:27.828Z,34.30
2018-08-22T17:15:56.027Z,34.30
2018-08-22T17:18:23.828Z,33.90
2018-08-22T17:20:51.623Z,34.30
2018-08-22T17:23:19.419Z,35.10
2018-08-22T17:25:47.035Z,35.40
2018-08-22T17:28:16.775Z,35.90
2018-08-22T17:30:44.669Z,36.20
2018-08-22T17:33:12.554Z,35.50
2018-08-22T17:35:43.359Z,36.20
2018-08-22T17:38:12.023Z,36.10
2018-08-22T17:40:40.631Z,37.00
2018-08-22T17:43:08.580Z,36.60
2018-08-22T17:45:37.788Z,36.80
2018-08-22T17:48:05.975Z,38.00
2018-08-22T17:50:33.652Z,37.10
2018-08-22T17:53:06.046Z,37.50
2018-08-22T17:55:33.752Z,38.10
2018-08-22T17:58:01.439Z,38.70
2018-08-22T18:00:32.048Z,38.70
2018-08-22T18:02:59.747Z,38.60
2018-08-22T18:05:28.995Z,38.90
2018-08-22T18:07:56.931Z,38.60
2018-08-22T18:10:24.653Z,39.50
2018-08-22T18:12:52.550Z,39.50
2018-08-22T18:15:20.232Z,40.90
2018-08-22T18:17:48.166Z,40.50
2018-08-22T18:20:15.937Z,41.30
2018-08-22T18:22:43.660Z,41.20
2018-08-22T18:25:11.353Z,41.40
2018-08-22T18:27:39.061Z,41.30
2018-08-22T18:30:09.865Z,41.40
2018-08-22T18:32:37.567Z,41.50
2018-08-22T18:35:08.973Z,41.90
2018-08-22T18:37:36.955Z,42.10
2018-08-22T18:40:26.155Z,42.30
2018-08-22T18:42:55.150Z,42.80
2018-08-22T18:45:23.557Z,43.30
2018-08-22T18:47:51.228Z,44.10
2018-08-22T18:50:19.322Z,44.60
2018-08-22T18:52:50.133Z,44.70
2018-08-22T18:55:19.715Z,45.10
2018-08-22T18:57:47.403Z,45.60
2018-08-22T19:00:15.154Z,45.60
2018-08-22T19:02:42.904Z,45.60
2018-08-22T19:05:18.783Z,46.10
2018-08-22T19:07:56.803Z,46.80
2018-08-22T19:10:26.530Z,46.70
2018-08-22T19:13:27.451Z,46.30
2018-08-22T19:15:57.168Z,47.00
2018-08-22T19:18:24.980Z,47.10
2018-08-22T19:20:54.413Z,47.40
2018-08-22T19:23:22.285Z,47.70
2018-08-22T19:25:50.862Z,47.60
2018-08-22T19:28:18.582Z,47.40
2018-08-22T19:30:46.487Z,47.60
2018-08-22T19:33:15.510Z,47.20
2018-08-22T19:35:43.958Z,47.40
2018-08-22T19:38:13.725Z,47.70
2018-08-22T19:40:41.519Z,47.80
2018-08-22T19:43:09.262Z,48.10
2018-08-22T19:45:37.008Z,48.50
2018-08-22T19:48:05.002Z,48.70
2018-08-22T19:50:32.744Z,49.80
2018-08-22T19:53:00.520Z,49.70
2018-08-22T19:55:28.670Z,49.80
2018-08-22T19:57:56.401Z,49.70
2018-08-22T20:00:24.172Z,49.70
2018-08-22T20:02:51.911Z,50.50
2018-08-22T20:05:19.667Z,50.40
2018-08-22T20:07:47.428Z,50.50
2018-08-22T20:10:17.068Z,51.40
2018-08-22T20:12:50.612Z,52.00
2018-08-22T20:15:18.359Z,52.50
2018-08-22T20:17:50.566Z,52.40
2018-08-22T20:20:18.930Z,53.10
2018-08-22T20:22:49.941Z,52.60
2018-08-22T20:25:17.662Z,52.50
2018-08-22T20:27:45.418Z,52.20
2018-08-22T20:30:18.327Z,52.60
2018-08-22T20:33:00.458Z,53.10
2018-08-22T20:35:31.299Z,53.70
2018-08-22T20:38:00.323Z,53.60
2018-08-22T20:40:28.255Z,53.20
2018-08-22T20:42:56.093Z,53.50
2018-08-22T20:45:29.452Z,54.00
2018-08-22T20:48:02.856Z,54.10
2018-08-22T20:50:30.582Z,54.50
2018-08-22T20:53:00.084Z,55.20
2018-08-22T20:55:28.095Z,55.40
2018-08-22T20:57:56.281Z,55.90
2018-08-22T21:00:24.939Z,56.80
2018-08-22T21:02:53.835Z,55.90
2018-08-22T21:05:21.687Z,56.40
2018-08-22T21:07:49.435Z,57.60
2018-08-22T21:10:17.964Z,57.70
2018-08-22T21:12:47.066Z,58.50
2018-08-22T21:15:14.815Z,59.00
2018-08-22T21:17:42.591Z,59.70
2018-08-22T21:20:25.955Z,59.60
2018-08-22T21:22:55.291Z,60.00
2018-08-22T21:25:23.035Z,61.40
2018-08-22T21:27:51.231Z,60.70
2018-08-22T21:30:19.014Z,62.10
2018-08-22T21:32:47.694Z,62.60
2018-08-22T21:35:19.509Z,63.20
2018-08-22T21:37:47.287Z,64.00
2018-08-22T21:40:15.056Z,64.60
2018-08-22T21:42:43.163Z,65.10
2018-08-22T21:45:11.096Z,65.90
2018-08-22T21:47:38.859Z,66.80
2018-08-22T21:50:06.650Z,67.10
2018-08-22T21:52:51.499Z,68.00
2018-08-22T21:55:23.807Z,68.80
2018-08-22T21:57:51.609Z,69.30
2018-08-22T22:00:19.497Z,70.30
2018-08-22T22:02:47.259Z,71.30
2018-08-22T22:05:15.059Z,71.70
2018-08-22T22:07:42.839Z,71.40
2018-08-22T22:10:11.291Z,72.30
2018-08-22T22:12:39.587Z,73.60
2018-08-22T22:15:12.853Z,74.30
2018-08-22T22:17:41.332Z,74.10
2018-08-22T22:20:09.043Z,75.00
2018-08-22T22:22:36.775Z,75.10
2018-08-22T22:25:05.563Z,75.70
2018-08-22T22:27:33.307Z,76.30
2018-08-22T22:30:03.851Z,75.60
2018-08-22T22:32:32.303Z,76.80
2018-08-22T22:35:00.160Z,77.30
2018-08-22T22:37:27.895Z,77.50
2018-08-22T22:39:55.635Z,77.50
2018-08-22T22:42:27.272Z,78.10
2018-08-22T22:44:56.491Z,78.30
2018-08-22T22:47:27.009Z,79.40
2018-08-22T22:49:55.176Z,79.90
2018-08-22T22:52:27.104Z,80.30
2018-08-22T22:54:55.939Z,81.60
2018-08-22T22:57:23.924Z,81.80
2018-08-22T22:59:52.163Z,81.80
2018-08-22T23:02:22.706Z,82.50
2018-08-22T23:04:51.396Z,82.90
2018-08-22T23:07:21.553Z,82.90
2018-08-22T23:09:52.490Z,84.20
2018-08-22T23:12:25.959Z,84.40
2018-08-22T23:14:54.792Z,85.50
2018-08-22T23:17:22.535Z,85.60
2018-08-22T23:20:00.498Z,86.40
2018-08-22T23:22:28.209Z,85.60
2018-08-22T23:24:55.945Z,85.60
2018-08-22T23:27:23.698Z,86.10
2018-08-22T23:29:51.395Z,86.40
2018-08-22T23:32:19.137Z,87.30
2018-08-22T23:34:46.834Z,88.20
2018-08-22T23:37:14.587Z,89.50
2018-08-22T23:39:42.327Z,90.00
2018-08-22T23:42:10.101Z,90.30
2018-08-22T23:44:42.266Z,90.00
2018-08-22T23:47:10.000Z,90.00
2018-08-22T23:49:42.220Z,89.90
2018-08-22T23:52:10.579Z,89.80
2018-08-22T23:54:43.019Z,89.60
2018-08-22T23:57:10.820Z,90.00
2018-08-22T23:59:38.523Z,90.80
